Hassler — WTEK — position and weather

sailwx.info

Track history (hours):
 
Tides and Currents Weather Stations Pressure Air Temp Water Temp Dewpoint Dewpoint Depression Visibility Wind Speed Wind Dir Waves Ship Positions

Oceanographic research ship Hassler (USA)

Last reported at 2019-Oct-17 12:50 UTC. Time now 2019-Oct-17 15:08 UTC.
Position N 41°40' W 070°42'.

Length 37 m; draft 3.8 m.

MMSI: 369970091.

Date/timePositionNaut miles runAvg speedWind from/ knotsBaromVisibWave heightAir tempDewpointWater temp
2019-Oct-17 12:50N 41°40' W 070°42'0 0.0
2019-Oct-17 12:29N 41°40' W 070°42'0 0.0
2019-Oct-17 11:56N 41°40' W 070°42'0 0.0
2019-Oct-17 11:29N 41°40' W 070°42'0 0.0
2019-Oct-17 10:59N 41°40' W 070°42'0 0.0
2019-Oct-17 10:29N 41°40' W 070°42'0 0.0
2019-Oct-17 09:59N 41°40' W 070°42'0 0.0
2019-Oct-17 09:26N 41°40' W 070°42'0 0.0
2019-Oct-17 08:56N 41°40' W 070°42'0 0.1
2019-Oct-17 08:29N 41°40' W 070°42'0 0.0
2019-Oct-17 07:59N 41°40' W 070°42'0 0.0
2019-Oct-17 07:29N 41°40' W 070°42'0 0.0
2019-Oct-17 06:59N 41°40' W 070°42'0 0.0
2019-Oct-17 06:29N 41°40' W 070°42'0 0.1
2019-Oct-17 05:59N 41°40' W 070°42'0 0.1
2019-Oct-17 05:23N 41°40' W 070°42'0 0.0
2019-Oct-17 04:59N 41°40' W 070°42'0 0.0
2019-Oct-17 04:29N 41°40' W 070°42'0 0.0
2019-Oct-17 03:56N 41°40' W 070°42'0 0.0
2019-Oct-17 03:29N 41°40' W 070°42'0 0.0
2019-Oct-17 02:56N 41°40' W 070°42'0 0.0
2019-Oct-17 02:29N 41°40' W 070°42'0 0.0
2019-Oct-17 01:59N 41°40' W 070°42'0 0.0
2019-Oct-17 01:29N 41°40' W 070°42'0 0.0
2019-Oct-17 00:59N 41°40' W 070°42'0 0.0
2019-Oct-17 00:29N 41°40' W 070°42'0 0.0
2019-Oct-16 23:59N 41°40' W 070°42'0 0.0
2019-Oct-16 23:29N 41°40' W 070°42'0 0.0
2019-Oct-16 22:59N 41°40' W 070°42'0 0.0
2019-Oct-16 22:29N 41°40' W 070°42'0 0.0
2019-Oct-16 21:59N 41°40' W 070°42'0 0.0
2019-Oct-16 21:29N 41°40' W 070°42'0 0.0
2019-Oct-16 20:59N 41°40' W 070°42'0 0.0
2019-Oct-16 20:29N 41°40' W 070°42'0 0.0
2019-Oct-16 19:59N 41°40' W 070°42'0 0.0
2019-Oct-16 19:29N 41°40' W 070°42'0 0.0
2019-Oct-16 18:59N 41°40' W 070°42'0 0.0
2019-Oct-16 18:29N 41°40' W 070°42'0 0.0
2019-Oct-16 17:59N 41°40' W 070°42'0 0.0
2019-Oct-16 17:29N 41°40' W 070°42'0 0.0
2019-Oct-16 16:59N 41°40' W 070°42'0 0.0
2019-Oct-16 16:26N 41°40' W 070°42'0 0.0
2019-Oct-16 15:59N 41°40' W 070°42'0 0.0
2019-Oct-16 15:29N 41°40' W 070°42'0 0.0
2019-Oct-16 14:59N 41°40' W 070°42'0 0.0
2019-Oct-16 14:29N 41°40' W 070°42'0 0.8
2019-Oct-16 14:01N 41°40' W 070°41'3 5.1
2019-Oct-16 13:30N 41°37' W 070°42'3 5.7
2019-Oct-16 13:00N 41°35' W 070°43'3 5.9
2019-Oct-16 12:30N 41°33' W 070°46'3 5.8
2019-Oct-16 12:00N 41°31' W 070°49'3 5.4
2019-Oct-16 11:30N 41°30' W 070°52'3 5.3
2019-Oct-16 11:00N 41°29' W 070°56'3 6.1
2019-Oct-16 10:29N 41°27' W 070°59'3 6.0
2019-Oct-16 10:00N 41°25' W 071°02'3 5.8
2019-Oct-16 09:30N 41°23' W 071°05'152 5.4
2019-Oct-15 05:29N 39°47' W 073°39'4 7.5
2019-Oct-15 05:00N 39°43' W 073°40'11 8.1
2019-Oct-15 03:39N 39°33' W 073°45'4 8.4
2019-Oct-15 03:12N 39°29' W 073°47'3 8.5
2019-Oct-15 02:54N 39°27' W 073°48'5 8.5
2019-Oct-15 02:22N 39°23' W 073°50'6 8.6
2019-Oct-15 01:37N 39°17' W 073°54'1 8.7
2019-Oct-15 01:30N 39°16' W 073°54'  
Track history (hours):
 
Tides and Currents Weather Stations Pressure Air Temp Water Temp Dewpoint Dewpoint Depression Visibility Wind Speed Wind Dir Waves Ship Positions

Oceanographic research ship Hassler (USA)

Last reported at 2019-Oct-17 12:50 UTC. Time now 2019-Oct-17 15:08 UTC.
Position N 41°40' W 070°42'.

Length 37 m; draft 3.8 m.

MMSI: 369970091.

Date/timePositionNaut miles runAvg speedWind from/ knotsBaromVisibWave heightAir tempDewpointWater temp
2019-Oct-17 12:50N 41°40' W 070°42'0 0.0
2019-Oct-17 12:29N 41°40' W 070°42'0 0.0
2019-Oct-17 11:56N 41°40' W 070°42'0 0.0
2019-Oct-17 11:29N 41°40' W 070°42'0 0.0
2019-Oct-17 10:59N 41°40' W 070°42'0 0.0
2019-Oct-17 10:29N 41°40' W 070°42'0 0.0
2019-Oct-17 09:59N 41°40' W 070°42'0 0.0
2019-Oct-17 09:26N 41°40' W 070°42'0 0.0
2019-Oct-17 08:56N 41°40' W 070°42'0 0.1
2019-Oct-17 08:29N 41°40' W 070°42'0 0.0
2019-Oct-17 07:59N 41°40' W 070°42'0 0.0
2019-Oct-17 07:29N 41°40' W 070°42'0 0.0
2019-Oct-17 06:59N 41°40' W 070°42'0 0.0
2019-Oct-17 06:29N 41°40' W 070°42'0 0.1
2019-Oct-17 05:59N 41°40' W 070°42'0 0.1
2019-Oct-17 05:23N 41°40' W 070°42'0 0.0
2019-Oct-17 04:59N 41°40' W 070°42'0 0.0
2019-Oct-17 04:29N 41°40' W 070°42'0 0.0
2019-Oct-17 03:56N 41°40' W 070°42'0 0.0
2019-Oct-17 03:29N 41°40' W 070°42'0 0.0
2019-Oct-17 02:56N 41°40' W 070°42'0 0.0
2019-Oct-17 02:29N 41°40' W 070°42'0 0.0
2019-Oct-17 01:59N 41°40' W 070°42'0 0.0
2019-Oct-17 01:29N 41°40' W 070°42'0 0.0
2019-Oct-17 00:59N 41°40' W 070°42'0 0.0
2019-Oct-17 00:29N 41°40' W 070°42'0 0.0
2019-Oct-16 23:59N 41°40' W 070°42'0 0.0
2019-Oct-16 23:29N 41°40' W 070°42'0 0.0
2019-Oct-16 22:59N 41°40' W 070°42'0 0.0
2019-Oct-16 22:29N 41°40' W 070°42'0 0.0
2019-Oct-16 21:59N 41°40' W 070°42'0 0.0
2019-Oct-16 21:29N 41°40' W 070°42'0 0.0
2019-Oct-16 20:59N 41°40' W 070°42'0 0.0
2019-Oct-16 20:29N 41°40' W 070°42'0 0.0
2019-Oct-16 19:59N 41°40' W 070°42'0 0.0
2019-Oct-16 19:29N 41°40' W 070°42'0 0.0
2019-Oct-16 18:59N 41°40' W 070°42'0 0.0
2019-Oct-16 18:29N 41°40' W 070°42'0 0.0
2019-Oct-16 17:59N 41°40' W 070°42'0 0.0
2019-Oct-16 17:29N 41°40' W 070°42'0 0.0
2019-Oct-16 16:59N 41°40' W 070°42'0 0.0
2019-Oct-16 16:26N 41°40' W 070°42'0 0.0
2019-Oct-16 15:59N 41°40' W 070°42'0 0.0
2019-Oct-16 15:29N 41°40' W 070°42'0 0.0
2019-Oct-16 14:59N 41°40' W 070°42'0 0.0
2019-Oct-16 14:29N 41°40' W 070°42'0 0.8
2019-Oct-16 14:01N 41°40' W 070°41'3 5.1
2019-Oct-16 13:30N 41°37' W 070°42'3 5.7
2019-Oct-16 13:00N 41°35' W 070°43'3 5.9
2019-Oct-16 12:30N 41°33' W 070°46'3 5.8
2019-Oct-16 12:00N 41°31' W 070°49'3 5.4
2019-Oct-16 11:30N 41°30' W 070°52'3 5.3
2019-Oct-16 11:00N 41°29' W 070°56'3 6.1
2019-Oct-16 10:29N 41°27' W 070°59'3 6.0
2019-Oct-16 10:00N 41°25' W 071°02'3 5.8
2019-Oct-16 09:30N 41°23' W 071°05'152 5.4
2019-Oct-15 05:29N 39°47' W 073°39'4 7.5
2019-Oct-15 05:00N 39°43' W 073°40'11 8.1
2019-Oct-15 03:39N 39°33' W 073°45'4 8.4
2019-Oct-15 03:12N 39°29' W 073°47'3 8.5
2019-Oct-15 02:54N 39°27' W 073°48'5 8.5
2019-Oct-15 02:22N 39°23' W 073°50'6 8.6
2019-Oct-15 01:37N 39°17' W 073°54'1 8.7
2019-Oct-15 01:30N 39°16' W 073°54'  

Dump ship's entire track history